Terminal Aerodrome Forecast
Issued by NWS

Home | Current Version | Previous Version | Text Only | Print | Product List | Glossary On
Versions: 1 2 3 4 5 6 7 8 9 10 11 12 13 14 15 16
204
FTUS45 KRIW 022327
TAFCPR
TAF
KCPR 022327Z 0300/0324 VRB05KT P6SM SCT020 BKN040
     FM030100 22007KT P6SM SKC
     FM030900 22014G20KT P6SM SCT120
     FM031400 22020G30KT P6SM FEW120 SCT250=

USA.gov is the U.S. government's official web portal to all federal, state and local government web resources and services.